sensor_id;sensor_type;location;lat;lon;timestamp;pressure;altitude;pressure_sealevel;temperature;humidity
71361;BME280;59166;48.908;1.870;2023-05-19T00:03:29;101175.94;;;10.01;82.81
71361;BME280;59166;48.908;1.870;2023-05-19T00:08:34;101168.44;;;9.92;83.38
71361;BME280;59166;48.908;1.870;2023-05-19T00:13:38;101166.78;;;9.79;84.57
71361;BME280;59166;48.908;1.870;2023-05-19T00:18:40;101160.19;;;9.63;85.24
71361;BME280;59166;48.908;1.870;2023-05-19T00:23:42;101161.13;;;9.57;85.95
71361;BME280;59166;48.908;1.870;2023-05-19T00:28:44;101157.97;;;9.49;86.97
71361;BME280;59166;48.908;1.870;2023-05-19T00:33:45;101152.78;;;9.47;87.41
71361;BME280;59166;48.908;1.870;2023-05-19T00:38:47;101146.69;;;9.40;88.48
71361;BME280;59166;48.908;1.870;2023-05-19T00:43:48;101144.22;;;9.39;89.54
71361;BME280;59166;48.908;1.870;2023-05-19T00:48:50;101143.75;;;9.42;89.41
71361;BME280;59166;48.908;1.870;2023-05-19T00:53:52;101140.09;;;9.36;90.04
71361;BME280;59166;48.908;1.870;2023-05-19T00:58:55;101139.28;;;9.36;90.91
71361;BME280;59166;48.908;1.870;2023-05-19T01:03:57;101136.22;;;9.20;92.69
71361;BME280;59166;48.908;1.870;2023-05-19T01:08:59;101133.50;;;9.20;92.30
71361;BME280;59166;48.908;1.870;2023-05-19T01:14:00;101121.78;;;9.15;93.67
71361;BME280;59166;48.908;1.870;2023-05-19T01:19:11;101124.25;;;9.16;93.20
71361;BME280;59166;48.908;1.870;2023-05-19T01:24:28;101123.56;;;9.21;93.33
71361;BME280;59166;48.908;1.870;2023-05-19T01:29:41;101110.53;;;9.18;93.72
71361;BME280;59166;48.908;1.870;2023-05-19T01:34:45;101113.47;;;9.16;94.12
71361;BME280;59166;48.908;1.870;2023-05-19T01:39:49;101114.38;;;9.10;94.43
71361;BME280;59166;48.908;1.870;2023-05-19T01:44:51;101110.75;;;9.16;93.75
71361;BME280;59166;48.908;1.870;2023-05-19T01:49:54;101115.69;;;9.08;94.67
71361;BME280;59166;48.908;1.870;2023-05-19T01:54:55;101121.59;;;8.98;94.36
71361;BME280;59166;48.908;1.870;2023-05-19T02:00:03;101112.34;;;8.94;95.94
71361;BME280;59166;48.908;1.870;2023-05-19T02:05:12;101108.47;;;8.90;96.25
71361;BME280;59166;48.908;1.870;2023-05-19T02:10:22;101112.22;;;8.89;95.73
71361;BME280;59166;48.908;1.870;2023-05-19T02:15:29;101108.03;;;8.75;96.55
71361;BME280;59166;48.908;1.870;2023-05-19T02:20:35;101112.81;;;8.73;97.49
71361;BME280;59166;48.908;1.870;2023-05-19T02:25:36;101113.38;;;8.63;97.68
71361;BME280;59166;48.908;1.870;2023-05-19T02:30:37;101104.31;;;8.58;97.78
71361;BME280;59166;48.908;1.870;2023-05-19T02:35:39;101103.06;;;8.60;97.75
71361;BME280;59166;48.908;1.870;2023-05-19T02:40:40;101102.53;;;8.52;98.47
71361;BME280;59166;48.908;1.870;2023-05-19T02:45:40;101100.63;;;8.41;99.45
71361;BME280;59166;48.908;1.870;2023-05-19T02:50:43;101100.63;;;8.41;99.82
71361;BME280;59166;48.908;1.870;2023-05-19T02:55:43;101104.81;;;8.37;99.67
71361;BME280;59166;48.908;1.870;2023-05-19T03:00:44;101108.63;;;8.29;99.94
71361;BME280;59166;48.908;1.870;2023-05-19T03:05:47;101109.28;;;8.24;99.63
71361;BME280;59166;48.908;1.870;2023-05-19T03:10:47;101100.03;;;8.20;99.50
71361;BME280;59166;48.908;1.870;2023-05-19T03:15:48;101100.63;;;8.22;99.65
71361;BME280;59166;48.908;1.870;2023-05-19T03:20:50;101099.06;;;8.15;100.00
71361;BME280;59166;48.908;1.870;2023-05-19T03:25:51;101095.25;;;8.04;100.00
71361;BME280;59166;48.908;1.870;2023-05-19T03:30:52;101092.44;;;7.99;100.00
71361;BME280;59166;48.908;1.870;2023-05-19T03:35:55;101101.53;;;7.98;100.00
71361;BME280;59166;48.908;1.870;2023-05-19T03:40:56;101088.75;;;7.94;100.00
71361;BME280;59166;48.908;1.870;2023-05-19T03:45:57;101084.44;;;7.93;100.00
71361;BME280;59166;48.908;1.870;2023-05-19T03:50:59;101102.25;;;7.87;100.00
71361;BME280;59166;48.908;1.870;2023-05-19T03:56:00;101110.94;;;7.89;100.00
71361;BME280;59166;48.908;1.870;2023-05-19T04:01:01;101107.66;;;7.87;100.00
71361;BME280;59166;48.908;1.870;2023-05-19T04:06:03;101107.34;;;7.77;100.00
71361;BME280;59166;48.908;1.870;2023-05-19T04:11:04;101105.53;;;7.71;100.00
71361;BME280;59166;48.908;1.870;2023-05-19T04:16:05;101110.34;;;7.69;100.00
71361;BME280;59166;48.908;1.870;2023-05-19T04:21:08;101101.50;;;7.62;100.00
71361;BME280;59166;48.908;1.870;2023-05-19T04:26:08;101111.88;;;7.58;100.00
71361;BME280;59166;48.908;1.870;2023-05-19T04:31:09;101119.13;;;7.58;100.00
71361;BME280;59166;48.908;1.870;2023-05-19T04:36:12;101120.38;;;7.55;100.00
71361;BME280;59166;48.908;1.870;2023-05-19T04:41:33;101127.63;;;7.55;100.00
71361;BME280;59166;48.908;1.870;2023-05-19T04:46:33;101121.81;;;7.58;100.00
71361;BME280;59166;48.908;1.870;2023-05-19T04:51:36;101128.22;;;7.57;100.00
71361;BME280;59166;48.908;1.870;2023-05-19T04:56:37;101121.22;;;7.56;100.00
71361;BME280;59166;48.908;1.870;2023-05-19T05:01:37;101124.09;;;7.54;100.00
71361;BME280;59166;48.908;1.870;2023-05-19T05:06:40;101117.84;;;7.60;100.00
71361;BME280;59166;48.908;1.870;2023-05-19T05:11:41;101125.47;;;7.63;100.00
71361;BME280;59166;48.908;1.870;2023-05-19T05:16:46;101124.59;;;7.69;100.00
71361;BME280;59166;48.908;1.870;2023-05-19T05:21:49;101130.38;;;7.73;100.00
71361;BME280;59166;48.908;1.870;2023-05-19T05:26:51;101131.09;;;7.80;100.00
71361;BME280;59166;48.908;1.870;2023-05-19T05:31:52;101123.34;;;7.90;100.00
71361;BME280;59166;48.908;1.870;2023-05-19T05:36:54;101133.28;;;8.08;100.00
71361;BME280;59166;48.908;1.870;2023-05-19T05:41:55;101127.56;;;8.22;100.00
71361;BME280;59166;48.908;1.870;2023-05-19T05:46:56;101136.50;;;8.35;100.00
71361;BME280;59166;48.908;1.870;2023-05-19T05:51:59;101131.56;;;8.50;100.00
71361;BME280;59166;48.908;1.870;2023-05-19T05:57:00;101139.59;;;8.68;98.70
71361;BME280;59166;48.908;1.870;2023-05-19T06:02:01;101135.69;;;8.82;99.87
71361;BME280;59166;48.908;1.870;2023-05-19T06:07:03;101143.88;;;8.94;98.65
71361;BME280;59166;48.908;1.870;2023-05-19T06:12:05;101141.19;;;9.05;97.81
71361;BME280;59166;48.908;1.870;2023-05-19T06:17:05;101147.00;;;9.20;95.92
71361;BME280;59166;48.908;1.870;2023-05-19T06:22:08;101152.53;;;9.37;95.95
71361;BME280;59166;48.908;1.870;2023-05-19T06:27:09;101153.41;;;9.61;95.28
71361;BME280;59166;48.908;1.870;2023-05-19T06:32:10;101146.72;;;9.75;93.12
71361;BME280;59166;48.908;1.870;2023-05-19T06:37:12;101147.28;;;10.00;89.77
71361;BME280;59166;48.908;1.870;2023-05-19T06:42:13;101145.63;;;10.22;89.00
71361;BME280;59166;48.908;1.870;2023-05-19T06:47:14;101141.94;;;10.40;87.78
71361;BME280;59166;48.908;1.870;2023-05-19T06:52:16;101136.16;;;10.60;85.92
71361;BME280;59166;48.908;1.870;2023-05-19T06:57:17;101132.41;;;10.89;84.15
71361;BME280;59166;48.908;1.870;2023-05-19T07:02:17;101127.19;;;10.99;80.40
71361;BME280;59166;48.908;1.870;2023-05-19T07:07:20;101133.06;;;11.24;78.23
71361;BME280;59166;48.908;1.870;2023-05-19T07:12:21;101132.31;;;11.46;79.92
71361;BME280;59166;48.908;1.870;2023-05-19T07:17:21;101128.00;;;11.61;77.91
71361;BME280;59166;48.908;1.870;2023-05-19T07:22:27;101138.16;;;11.71;77.41
71361;BME280;59166;48.908;1.870;2023-05-19T07:27:28;101144.53;;;11.81;78.57
71361;BME280;59166;48.908;1.870;2023-05-19T07:32:29;101147.47;;;11.97;75.79
71361;BME280;59166;48.908;1.870;2023-05-19T07:37:31;101147.06;;;12.26;76.04
71361;BME280;59166;48.908;1.870;2023-05-19T07:42:32;101145.41;;;12.42;76.44
71361;BME280;59166;48.908;1.870;2023-05-19T07:47:33;101146.97;;;12.60;74.15
71361;BME280;59166;48.908;1.870;2023-05-19T07:52:35;101143.53;;;12.91;73.96
71361;BME280;59166;48.908;1.870;2023-05-19T07:57:36;101138.31;;;13.11;74.11
71361;BME280;59166;48.908;1.870;2023-05-19T08:02:37;101138.50;;;13.31;71.75
71361;BME280;59166;48.908;1.870;2023-05-19T08:07:40;101142.50;;;13.51;71.07
71361;BME280;59166;48.908;1.870;2023-05-19T08:12:40;101124.75;;;13.75;72.05
71361;BME280;59166;48.908;1.870;2023-05-19T08:17:41;101126.06;;;14.04;71.44
71361;BME280;59166;48.908;1.870;2023-05-19T08:22:44;101115.53;;;14.18;70.26
71361;BME280;59166;48.908;1.870;2023-05-19T08:27:45;101123.50;;;14.39;68.69
71361;BME280;59166;48.908;1.870;2023-05-19T08:32:45;101113.09;;;14.93;68.65
71361;BME280;59166;48.908;1.870;2023-05-19T08:37:47;101112.88;;;15.46;68.52
71361;BME280;59166;48.908;1.870;2023-05-19T08:42:49;101112.84;;;15.86;66.20
71361;BME280;59166;48.908;1.870;2023-05-19T08:47:50;101105.81;;;16.54;61.22
71361;BME280;59166;48.908;1.870;2023-05-19T08:52:57;101105.91;;;16.88;57.64
71361;BME280;59166;48.908;1.870;2023-05-19T08:57:59;101096.84;;;17.36;56.40
71361;BME280;59166;48.908;1.870;2023-05-19T09:03:01;101099.19;;;17.77;53.75
71361;BME280;59166;48.908;1.870;2023-05-19T09:08:03;101098.44;;;18.00;56.07
71361;BME280;59166;48.908;1.870;2023-05-19T09:13:04;101086.78;;;18.13;57.46
71361;BME280;59166;48.908;1.870;2023-05-19T09:18:07;101084.31;;;18.40;53.29
71361;BME280;59166;48.908;1.870;2023-05-19T09:23:13;101103.72;;;18.81;54.79
71361;BME280;59166;48.908;1.870;2023-05-19T09:28:15;101097.19;;;18.59;53.14
71361;BME280;59166;48.908;1.870;2023-05-19T09:33:22;101086.50;;;18.81;53.90
71361;BME280;59166;48.908;1.870;2023-05-19T09:38:24;101088.41;;;18.80;53.25
71361;BME280;59166;48.908;1.870;2023-05-19T09:43:26;101086.94;;;18.88;52.85
71361;BME280;59166;48.908;1.870;2023-05-19T09:48:27;101086.78;;;18.79;51.47
71361;BME280;59166;48.908;1.870;2023-05-19T09:53:30;101082.78;;;18.90;50.56
71361;BME280;59166;48.908;1.870;2023-05-19T09:58:31;101087.00;;;19.02;50.88
71361;BME280;59166;48.908;1.870;2023-05-19T10:03:32;101078.84;;;19.34;51.89
71361;BME280;59166;48.908;1.870;2023-05-19T10:08:36;101086.81;;;19.49;52.89
71361;BME280;59166;48.908;1.870;2023-05-19T10:13:38;101082.25;;;19.26;50.93
71361;BME280;59166;48.908;1.870;2023-05-19T10:18:39;101075.69;;;19.40;52.61
71361;BME280;59166;48.908;1.870;2023-05-19T10:23:42;101077.75;;;19.48;53.47
71361;BME280;59166;48.908;1.870;2023-05-19T10:28:43;101075.69;;;19.73;53.40
71361;BME280;59166;48.908;1.870;2023-05-19T10:34:06;101073.16;;;19.90;50.50
71361;BME280;59166;48.908;1.870;2023-05-19T10:39:16;101064.47;;;20.15;51.84
71361;BME280;59166;48.908;1.870;2023-05-19T10:44:26;101066.06;;;19.89;48.83
71361;BME280;59166;48.908;1.870;2023-05-19T10:49:34;101053.34;;;19.79;48.56
71361;BME280;59166;48.908;1.870;2023-05-19T10:54:42;101050.63;;;20.20;49.67
71361;BME280;59166;48.908;1.870;2023-05-19T10:59:43;101040.88;;;20.01;45.83
71361;BME280;59166;48.908;1.870;2023-05-19T11:04:45;101050.94;;;20.19;46.50
71361;BME280;59166;48.908;1.870;2023-05-19T11:09:50;101044.66;;;20.68;46.06
71361;BME280;59166;48.908;1.870;2023-05-19T11:14:52;101035.13;;;21.01;44.58
71361;BME280;59166;48.908;1.870;2023-05-19T11:19:55;101024.00;;;21.06;45.90
71361;BME280;59166;48.908;1.870;2023-05-19T11:24:57;101026.94;;;20.74;50.25
71361;BME280;59166;48.908;1.870;2023-05-19T11:29:59;101011.91;;;21.38;45.32
71361;BME280;59166;48.908;1.870;2023-05-19T11:35:01;101015.19;;;21.79;43.52
71361;BME280;59166;48.908;1.870;2023-05-19T11:40:04;101014.44;;;21.57;46.13
71361;BME280;59166;48.908;1.870;2023-05-19T11:45:06;101018.63;;;21.54;40.86
71361;BME280;59166;48.908;1.870;2023-05-19T11:50:10;101013.44;;;20.99;47.39
71361;BME280;59166;48.908;1.870;2023-05-19T11:55:15;101010.75;;;20.50;46.33
71361;BME280;59166;48.908;1.870;2023-05-19T12:00:16;101004.00;;;19.93;45.01
71361;BME280;59166;48.908;1.870;2023-05-19T12:05:18;100986.94;;;20.23;46.54
71361;BME280;59166;48.908;1.870;2023-05-19T12:10:22;100990.28;;;20.56;46.65
71361;BME280;59166;48.908;1.870;2023-05-19T12:15:24;100985.19;;;21.61;42.26
71361;BME280;59166;48.908;1.870;2023-05-19T12:20:25;100976.19;;;21.38;39.99
71361;BME280;59166;48.908;1.870;2023-05-19T12:25:29;100980.03;;;21.28;45.98
71361;BME280;59166;48.908;1.870;2023-05-19T12:30:30;100970.75;;;20.93;43.65
71361;BME280;59166;48.908;1.870;2023-05-19T12:35:32;100966.28;;;21.28;43.80
71361;BME280;59166;48.908;1.870;2023-05-19T12:40:34;100964.91;;;21.96;41.46
71361;BME280;59166;48.908;1.870;2023-05-19T12:45:36;100962.22;;;22.30;42.30
71361;BME280;59166;48.908;1.870;2023-05-19T12:50:37;100969.75;;;21.82;42.84
71361;BME280;59166;48.908;1.870;2023-05-19T12:55:40;100971.47;;;22.34;41.20
71361;BME280;59166;48.908;1.870;2023-05-19T13:00:42;100957.59;;;22.65;38.55
71361;BME280;59166;48.908;1.870;2023-05-19T13:05:45;100955.16;;;22.55;38.42
71361;BME280;59166;48.908;1.870;2023-05-19T13:10:48;100949.78;;;22.93;39.14
71361;BME280;59166;48.908;1.870;2023-05-19T13:15:49;100940.06;;;22.44;40.52
71361;BME280;59166;48.908;1.870;2023-05-19T13:20:49;100942.31;;;22.16;38.43
71361;BME280;59166;48.908;1.870;2023-05-19T13:25:52;100930.84;;;22.23;40.20
71361;BME280;59166;48.908;1.870;2023-05-19T13:30:53;100919.34;;;22.55;40.57
71361;BME280;59166;48.908;1.870;2023-05-19T13:35:55;100924.69;;;22.52;39.54
71361;BME280;59166;48.908;1.870;2023-05-19T13:40:57;100913.50;;;22.65;38.61
71361;BME280;59166;48.908;1.870;2023-05-19T13:45:58;100912.72;;;22.56;37.09
71361;BME280;59166;48.908;1.870;2023-05-19T13:50:59;100914.00;;;22.50;40.30
71361;BME280;59166;48.908;1.870;2023-05-19T13:56:01;100921.22;;;21.86;40.71
71361;BME280;59166;48.908;1.870;2023-05-19T14:01:02;100902.16;;;22.24;41.42
71361;BME280;59166;48.908;1.870;2023-05-19T14:06:03;100907.84;;;22.19;38.02
71361;BME280;59166;48.908;1.870;2023-05-19T14:11:05;100910.44;;;22.15;38.29
71361;BME280;59166;48.908;1.870;2023-05-19T14:16:07;100905.75;;;22.59;39.43
71361;BME280;59166;48.908;1.870;2023-05-19T14:21:08;100902.53;;;22.57;38.92
71361;BME280;59166;48.908;1.870;2023-05-19T14:26:10;100892.44;;;22.61;38.06
71361;BME280;59166;48.908;1.870;2023-05-19T14:31:11;100887.09;;;22.73;39.56
71361;BME280;59166;48.908;1.870;2023-05-19T14:36:12;100888.00;;;22.94;36.63
71361;BME280;59166;48.908;1.870;2023-05-19T14:41:14;100888.22;;;22.80;36.74
71361;BME280;59166;48.908;1.870;2023-05-19T14:46:15;100891.00;;;22.29;38.50
71361;BME280;59166;48.908;1.870;2023-05-19T14:51:16;100886.31;;;22.12;39.44
71361;BME280;59166;48.908;1.870;2023-05-19T14:56:18;100883.69;;;22.76;39.15
71361;BME280;59166;48.908;1.870;2023-05-19T15:01:27;100876.38;;;22.80;35.99
71361;BME280;59166;48.908;1.870;2023-05-19T15:06:31;100883.38;;;22.09;38.75
71361;BME280;59166;48.908;1.870;2023-05-19T15:11:34;100879.13;;;21.77;38.00
71361;BME280;59166;48.908;1.870;2023-05-19T15:16:36;100879.66;;;21.00;39.25
71361;BME280;59166;48.908;1.870;2023-05-19T15:21:45;100883.84;;;21.93;38.47
71361;BME280;59166;48.908;1.870;2023-05-19T15:26:48;100870.72;;;22.68;37.91
71361;BME280;59166;48.908;1.870;2023-05-19T15:31:49;100883.53;;;22.38;39.11
71361;BME280;59166;48.908;1.870;2023-05-19T15:36:50;100881.28;;;21.49;39.87
71361;BME280;59166;48.908;1.870;2023-05-19T15:41:54;100869.28;;;22.10;39.54
71361;BME280;59166;48.908;1.870;2023-05-19T15:46:55;100859.59;;;21.39;41.25
71361;BME280;59166;48.908;1.870;2023-05-19T15:51:56;100861.91;;;21.54;41.83
71361;BME280;59166;48.908;1.870;2023-05-19T15:57:00;100845.66;;;22.18;39.51
71361;BME280;59166;48.908;1.870;2023-05-19T16:02:05;100843.84;;;21.22;40.47
71361;BME280;59166;48.908;1.870;2023-05-19T16:07:33;100841.91;;;21.71;41.36
71361;BME280;59166;48.908;1.870;2023-05-19T16:17:57;100850.25;;;21.01;41.32
71361;BME280;59166;48.908;1.870;2023-05-19T16:22:59;100826.03;;;21.68;42.45
71361;BME280;59166;48.908;1.870;2023-05-19T16:28:12;100829.59;;;21.68;39.13
71361;BME280;59166;48.908;1.870;2023-05-19T16:33:24;100839.63;;;21.16;39.80
71361;BME280;59166;48.908;1.870;2023-05-19T16:43:58;100823.28;;;21.68;38.84
71361;BME280;59166;48.908;1.870;2023-05-19T16:49:08;100826.03;;;21.68;39.15
71361;BME280;59166;48.908;1.870;2023-05-19T16:54:10;100826.88;;;20.81;41.25
71361;BME280;59166;48.908;1.870;2023-05-19T16:59:18;100822.97;;;21.13;42.68
71361;BME280;59166;48.908;1.870;2023-05-19T17:04:28;100816.63;;;21.52;40.38
71361;BME280;59166;48.908;1.870;2023-05-19T17:15:10;100809.38;;;20.24;41.02
71361;BME280;59166;48.908;1.870;2023-05-19T17:20:17;100822.59;;;20.22;41.73
71361;BME280;59166;48.908;1.870;2023-05-19T17:25:37;100814.69;;;20.42;41.26
71361;BME280;59166;48.908;1.870;2023-05-19T17:30:56;100822.84;;;20.56;42.14
71361;BME280;59166;48.908;1.870;2023-05-19T17:35:57;100821.19;;;19.88;41.43
71361;BME280;59166;48.908;1.870;2023-05-19T17:46:32;100822.38;;;19.46;42.73
71361;BME280;59166;48.908;1.870;2023-05-19T17:51:57;100824.03;;;19.34;44.36
71361;BME280;59166;48.908;1.870;2023-05-19T17:57:04;100814.72;;;19.21;43.14
71361;BME280;59166;48.908;1.870;2023-05-19T18:02:23;100824.81;;;19.07;44.33
71361;BME280;59166;48.908;1.870;2023-05-19T18:07:37;100824.19;;;18.83;46.41
71361;BME280;59166;48.908;1.870;2023-05-19T18:12:47;100814.44;;;18.63;45.28
71361;BME280;59166;48.908;1.870;2023-05-19T18:17:58;100817.78;;;18.60;47.56
71361;BME280;59166;48.908;1.870;2023-05-19T18:23:09;100822.09;;;18.48;46.38
71361;BME280;59166;48.908;1.870;2023-05-19T18:28:12;100821.25;;;18.33;44.89
71361;BME280;59166;48.908;1.870;2023-05-19T18:33:37;100828.63;;;18.14;45.66
71361;BME280;59166;48.908;1.870;2023-05-19T18:44:08;100834.94;;;17.96;46.76
71361;BME280;59166;48.908;1.870;2023-05-19T18:54:47;100837.97;;;17.76;48.24
71361;BME280;59166;48.908;1.870;2023-05-19T19:00:08;100837.06;;;17.62;48.92
71361;BME280;59166;48.908;1.870;2023-05-19T19:05:31;100848.41;;;17.50;48.51
71361;BME280;59166;48.908;1.870;2023-05-19T19:10:38;100845.00;;;17.39;50.72
71361;BME280;59166;48.908;1.870;2023-05-19T19:16:00;100847.97;;;17.19;52.47
71361;BME280;59166;48.908;1.870;2023-05-19T19:27:08;100848.53;;;16.64;54.75
71361;BME280;59166;48.908;1.870;2023-05-19T19:32:40;100849.84;;;16.37;54.17
71361;BME280;59166;48.908;1.870;2023-05-19T19:37:46;100853.31;;;16.14;56.17
71361;BME280;59166;48.908;1.870;2023-05-19T19:43:06;100849.88;;;15.93;56.14
71361;BME280;59166;48.908;1.870;2023-05-19T19:48:07;100866.59;;;15.77;57.11
71361;BME280;59166;48.908;1.870;2023-05-19T19:53:08;100875.38;;;15.59;59.53
71361;BME280;59166;48.908;1.870;2023-05-19T19:58:10;100875.22;;;15.35;61.05
71361;BME280;59166;48.908;1.870;2023-05-19T20:03:11;100882.09;;;15.12;62.02
71361;BME280;59166;48.908;1.870;2023-05-19T20:08:12;100876.66;;;14.97;63.50
71361;BME280;59166;48.908;1.870;2023-05-19T20:13:15;100892.72;;;14.78;64.33
71361;BME280;59166;48.908;1.870;2023-05-19T20:18:16;100900.34;;;14.66;66.50
71361;BME280;59166;48.908;1.870;2023-05-19T20:23:16;100904.69;;;14.47;66.92
71361;BME280;59166;48.908;1.870;2023-05-19T20:28:18;100903.88;;;14.36;67.79
71361;BME280;59166;48.908;1.870;2023-05-19T20:33:20;100907.13;;;14.23;68.88
71361;BME280;59166;48.908;1.870;2023-05-19T20:38:20;100907.09;;;14.13;68.91
71361;BME280;59166;48.908;1.870;2023-05-19T20:43:23;100915.22;;;13.98;68.37
71361;BME280;59166;48.908;1.870;2023-05-19T20:48:23;100913.56;;;13.92;68.72
71361;BME280;59166;48.908;1.870;2023-05-19T20:53:24;100912.47;;;13.83;69.20
71361;BME280;59166;48.908;1.870;2023-05-19T20:58:27;100906.72;;;13.69;70.11
71361;BME280;59166;48.908;1.870;2023-05-19T21:03:27;100915.09;;;13.68;70.42
71361;BME280;59166;48.908;1.870;2023-05-19T21:08:28;100902.03;;;13.65;70.94
71361;BME280;59166;48.908;1.870;2023-05-19T21:13:31;100916.13;;;13.62;73.63
71361;BME280;59166;48.908;1.870;2023-05-19T21:18:32;100911.81;;;13.61;74.30
71361;BME280;59166;48.908;1.870;2023-05-19T21:23:33;100911.25;;;13.59;75.55
71361;BME280;59166;48.908;1.870;2023-05-19T21:28:35;100918.84;;;13.57;77.43
71361;BME280;59166;48.908;1.870;2023-05-19T21:33:36;100912.84;;;13.55;77.41
71361;BME280;59166;48.908;1.870;2023-05-19T21:38:37;100916.97;;;13.57;78.16
71361;BME280;59166;48.908;1.870;2023-05-19T21:43:39;100926.41;;;13.50;78.86
71361;BME280;59166;48.908;1.870;2023-05-19T21:48:40;100917.94;;;13.41;79.36
71361;BME280;59166;48.908;1.870;2023-05-19T21:53:41;100915.72;;;13.28;79.51
71361;BME280;59166;48.908;1.870;2023-05-19T21:58:44;100917.34;;;13.24;79.84
71361;BME280;59166;48.908;1.870;2023-05-19T22:03:44;100915.06;;;13.11;80.12
71361;BME280;59166;48.908;1.870;2023-05-19T22:08:45;100915.56;;;13.03;80.07
71361;BME280;59166;48.908;1.870;2023-05-19T22:13:48;100911.50;;;13.05;80.72
71361;BME280;59166;48.908;1.870;2023-05-19T22:18:49;100913.38;;;13.00;80.42
71361;BME280;59166;48.908;1.870;2023-05-19T22:23:50;100904.94;;;12.96;81.07
71361;BME280;59166;48.908;1.870;2023-05-19T22:28:55;100908.91;;;12.83;80.78
71361;BME280;59166;48.908;1.870;2023-05-19T22:33:56;100903.41;;;12.73;81.41
71361;BME280;59166;48.908;1.870;2023-05-19T22:38:57;100902.03;;;12.66;81.45
71361;BME280;59166;48.908;1.870;2023-05-19T22:44:00;100904.97;;;12.64;81.96
71361;BME280;59166;48.908;1.870;2023-05-19T22:49:01;100898.13;;;12.57;81.39
71361;BME280;59166;48.908;1.870;2023-05-19T22:54:02;100887.50;;;12.50;82.63
71361;BME280;59166;48.908;1.870;2023-05-19T22:59:05;100887.63;;;12.33;82.21
71361;BME280;59166;48.908;1.870;2023-05-19T23:04:07;100892.41;;;12.26;83.27
71361;BME280;59166;48.908;1.870;2023-05-19T23:09:08;100885.09;;;12.22;82.54
71361;BME280;59166;48.908;1.870;2023-05-19T23:14:11;100889.38;;;12.18;83.38
71361;BME280;59166;48.908;1.870;2023-05-19T23:19:13;100876.88;;;12.12;83.29
71361;BME280;59166;48.908;1.870;2023-05-19T23:24:19;100883.00;;;12.02;83.58
71361;BME280;59166;48.908;1.870;2023-05-19T23:29:25;100872.84;;;11.93;83.37
71361;BME280;59166;48.908;1.870;2023-05-19T23:34:27;100871.44;;;11.85;83.85
71361;BME280;59166;48.908;1.870;2023-05-19T23:39:29;100876.88;;;11.85;83.73
71361;BME280;59166;48.908;1.870;2023-05-19T23:44:33;100873.47;;;11.73;84.82
71361;BME280;59166;48.908;1.870;2023-05-19T23:49:35;100866.69;;;11.70;84.78
71361;BME280;59166;48.908;1.870;2023-05-19T23:54:35;100852.31;;;11.70;85.27
71361;BME280;59166;48.908;1.870;2023-05-19T23:59:38;100851.06;;;11.56;85.26
